Time;durP1;ratioP1;P1;durP2;ratioP2;P2;SDS_P1;SDS_P2;PMS_P1;PMS_P2;Temp;Humidity;BMP_temperature;BMP_pressure;BME280_temperature;BME280_humidity;BME280_pressure;Samples;Min_cycle;Max_cycle;Signal;HPM_P1;HPM_P2
2021/07/19 00:00:59;;;;;;;6.75;5.45;;;19.40;99.90;;;;;;4991086;28;20046;-77
2021/07/19 00:03:26;;;;;;;8.05;5.20;;;19.30;99.90;;;;;;4990879;28;20137;-78
2021/07/19 00:05:52;;;;;;;10.95;5.53;;;19.30;99.90;;;;;;4991870;28;20133;-77
2021/07/19 00:08:21;;;;;;;9.93;5.15;;;19.30;99.90;;;;;;4991366;28;20141;-78
2021/07/19 00:10:48;;;;;;;5.82;5.00;;;19.20;99.90;;;;;;4990918;28;20109;-79
2021/07/19 00:13:15;;;;;;;9.00;5.47;;;19.20;99.90;;;;;;4990374;28;20054;-78
2021/07/19 00:15:41;;;;;;;6.30;5.53;;;19.20;99.90;;;;;;4991838;28;20102;-77
2021/07/19 00:18:09;;;;;;;6.35;5.30;;;19.20;99.90;;;;;;4990573;28;20178;-77
2021/07/19 00:20:35;;;;;;;9.05;5.72;;;19.20;99.90;;;;;;4991995;28;20082;-78
2021/07/19 00:23:02;;;;;;;8.27;5.75;;;19.10;99.90;;;;;;4991391;28;20090;-78
2021/07/19 00:25:31;;;;;;;8.82;5.78;;;19.10;99.90;;;;;;4991933;28;20054;-78
2021/07/19 00:27:57;;;;;;;8.25;6.25;;;19.10;99.90;;;;;;4991882;28;20472;-78
2021/07/19 00:30:25;;;;;;;7.88;6.10;;;19.10;99.90;;;;;;4991939;28;20050;-77
2021/07/19 00:32:52;;;;;;;10.88;6.22;;;19.10;99.90;;;;;;4991814;28;20082;-75
2021/07/19 00:35:20;;;;;;;7.32;5.50;;;19.10;99.90;;;;;;4991545;28;20077;-78
2021/07/19 00:37:47;;;;;;;9.52;6.07;;;19.10;99.90;;;;;;4991850;28;20133;-78
2021/07/19 00:40:56;;;;;;;11.00;6.53;;;19.00;99.90;;;;;;4992041;23;20051;-82
2021/07/19 00:44:13;;;;;;;;;;;;;;;;;;;;;
2021/07/19 00:46:49;;;;;;;10.07;6.03;;;18.90;99.90;;;;;;4939130;29;20115;-81
2021/07/19 00:50:08;;;;;;;10.75;6.40;;;18.90;99.90;;;;;;4952198;29;20053;-82
2021/07/19 00:52:57;;;;;;;11.02;6.95;;;18.80;99.90;;;;;;4922149;29;20086;-81
2021/07/19 00:55:54;;;;;;;8.65;6.32;;;18.60;99.90;;;;;;4962954;29;20051;-81
2021/07/19 00:59:01;;;;;;;11.75;6.60;;;18.60;99.90;;;;;;4952357;28;20062;-81
2021/07/19 01:05:28;;;;;;;7.75;6.35;;;18.40;99.90;;;;;;4963643;29;20051;-83
2021/07/19 01:08:05;;;;;;;13.40;6.80;;;18.40;99.90;;;;;;4964481;29;20081;-82
2021/07/19 01:11:15;;;;;;;9.18;6.53;;;18.40;99.90;;;;;;4965214;28;20058;-82
2021/07/19 01:13:50;;;;;;;9.98;7.10;;;18.30;99.90;;;;;;4932624;29;20058;-81
2021/07/19 01:19:01;;;;;;;;;;;18.20;99.90;;;;;;5031574;23;20074;-80
2021/07/19 01:21:57;;;;;;;13.02;6.63;;;18.20;99.90;;;;;;4996144;28;19976;-81
2021/07/19 01:24:46;;;;;;;9.80;7.03;;;18.20;99.90;;;;;;5003531;28;20093;-81
2021/07/19 01:27:58;;;;;;;13.65;7.72;;;18.10;99.90;;;;;;5003902;28;20061;-81
2021/07/19 01:30:29;;;;;;;14.23;7.70;;;18.10;99.90;;;;;;5003537;28;20054;-81
2021/07/19 01:32:59;;;;;;;12.52;7.88;;;18.00;99.90;;;;;;5003880;28;20141;-80
2021/07/19 01:38:47;;;;;;;12.65;7.63;;;18.10;99.90;;;;;;4924819;28;20090;-81
2021/07/19 01:41:20;;;;;;;11.63;7.90;;;18.00;99.90;;;;;;4987648;28;20067;-83
2021/07/19 01:43:47;;;;;;;9.25;7.72;;;18.00;99.90;;;;;;4987172;28;20115;-82
2021/07/19 01:57:06;;;;;;;12.25;8.27;;;17.90;99.90;;;;;;4814627;29;20089;-82
2021/07/19 01:59:34;;;;;;;11.27;8.50;;;17.90;99.90;;;;;;4855982;29;20098;-81
2021/07/19 02:02:02;;;;;;;11.68;8.70;;;18.00;99.90;;;;;;4985595;28;20085;-82
2021/07/19 02:04:33;;;;;;;13.68;7.60;;;18.00;99.90;;;;;;4985928;28;20062;-81
2021/07/19 02:07:07;;;;;;;14.03;8.60;;;18.00;99.90;;;;;;4986317;28;20046;-82
2021/07/19 02:09:46;;;;;;;11.48;8.65;;;18.10;99.90;;;;;;4986488;28;20051;-80
2021/07/19 02:12:21;;;;;;;15.30;8.77;;;18.10;99.90;;;;;;4978112;28;20538;-82
2021/07/19 02:14:53;;;;;;;12.43;8.45;;;18.10;99.90;;;;;;4987724;28;20082;-81
2021/07/19 02:23:07;;;;;;;12.75;8.43;;;18.00;99.90;;;;;;4978853;28;20074;-82
2021/07/19 02:25:37;;;;;;;9.88;8.20;;;17.90;99.90;;;;;;4979300;28;20222;-82
2021/07/19 02:28:07;;;;;;;12.10;9.45;;;17.90;99.90;;;;;;4979869;28;20071;-81
2021/07/19 02:30:36;;;;;;;13.30;8.73;;;17.80;99.90;;;;;;4980006;28;20065;-84
2021/07/19 02:33:04;;;;;;;11.07;8.02;;;17.80;99.90;;;;;;4980806;28;20119;-83
2021/07/19 02:35:32;;;;;;;12.35;8.18;;;17.80;99.90;;;;;;4978899;28;20086;-81
2021/07/19 02:38:04;;;;;;;11.73;8.52;;;17.70;99.90;;;;;;4979112;28;20047;-83
2021/07/19 02:40:32;;;;;;;12.27;8.13;;;17.60;99.90;;;;;;4978866;28;20149;-82
2021/07/19 02:43:04;;;;;;;12.55;8.23;;;17.60;99.90;;;;;;4984480;28;20134;-81
2021/07/19 02:45:35;;;;;;;12.40;9.07;;;17.50;99.90;;;;;;4989158;28;20054;-80
2021/07/19 02:48:05;;;;;;;11.68;8.75;;;17.50;99.90;;;;;;4988575;28;20047;-80
2021/07/19 02:50:33;;;;;;;15.68;9.27;;;17.50;99.90;;;;;;4986981;28;20078;-79
2021/07/19 02:53:03;;;;;;;15.15;9.68;;;17.50;99.90;;;;;;4985200;28;20106;-80
2021/07/19 02:55:32;;;;;;;12.88;9.65;;;17.50;99.90;;;;;;4986132;28;20074;-80
2021/07/19 02:58:01;;;;;;;12.88;8.73;;;17.50;99.90;;;;;;4985623;28;20074;-81
2021/07/19 03:00:30;;;;;;;12.73;9.00;;;17.50;99.90;;;;;;4988344;28;20101;-82
2021/07/19 03:03:00;;;;;;;15.30;9.13;;;17.50;99.90;;;;;;4986921;28;20058;-83
2021/07/19 03:05:31;;;;;;;15.13;9.50;;;17.50;99.90;;;;;;4984927;28;20079;-81
2021/07/19 03:07:59;;;;;;;16.25;9.25;;;17.40;99.90;;;;;;4980586;28;20129;-84
2021/07/19 03:10:29;;;;;;;14.93;9.55;;;17.30;99.90;;;;;;4983251;28;20054;-82
2021/07/19 03:13:01;;;;;;;12.57;9.05;;;17.30;99.90;;;;;;4983788;28;20081;-81
2021/07/19 03:15:30;;;;;;;18.13;9.32;;;17.30;99.90;;;;;;4984230;28;20145;-79
2021/07/19 03:17:58;;;;;;;13.98;8.68;;;17.20;99.90;;;;;;4984504;28;20074;-80
2021/07/19 03:20:26;;;;;;;13.35;8.98;;;17.20;99.90;;;;;;4984153;28;20138;-81
2021/07/19 03:22:54;;;;;;;14.35;9.35;;;17.20;99.90;;;;;;4984035;28;20049;-80
2021/07/19 03:25:25;;;;;;;14.43;9.23;;;17.20;99.90;;;;;;4982220;28;20074;-79
2021/07/19 03:27:53;;;;;;;13.75;8.13;;;17.10;99.90;;;;;;4982787;28;20077;-81
2021/07/19 03:30:24;;;;;;;12.27;8.63;;;17.10;99.90;;;;;;4978736;28;20093;-81
2021/07/19 03:32:52;;;;;;;13.30;8.75;;;17.10;99.90;;;;;;4986412;28;20054;-81
2021/07/19 03:35:22;;;;;;;13.38;9.57;;;17.10;99.90;;;;;;4989560;28;20115;-81
2021/07/19 03:37:51;;;;;;;13.63;8.82;;;17.10;99.90;;;;;;4985864;28;20051;-79
2021/07/19 03:40:19;;;;;;;13.07;8.48;;;17.10;99.90;;;;;;4978108;28;20081;-81
2021/07/19 03:42:48;;;;;;;11.80;8.57;;;17.10;99.90;;;;;;4978060;28;20089;-80
2021/07/19 03:45:16;;;;;;;13.18;9.07;;;17.10;99.90;;;;;;4977982;28;20135;-79
2021/07/19 03:47:46;;;;;;;12.52;9.15;;;17.00;99.90;;;;;;4978364;28;20417;-79
2021/07/19 03:50:14;;;;;;;15.02;9.13;;;17.00;99.90;;;;;;4977909;28;20074;-80
2021/07/19 03:52:42;;;;;;;13.40;8.95;;;17.00;99.90;;;;;;4978788;28;20148;-80
2021/07/19 03:55:11;;;;;;;12.32;8.80;;;17.00;99.90;;;;;;4977245;28;20134;-83
2021/07/19 03:57:40;;;;;;;16.77;9.27;;;17.00;99.90;;;;;;4977700;28;20084;-82
2021/07/19 04:00:08;;;;;;;14.25;8.90;;;17.00;99.90;;;;;;4977479;28;20047;-83
2021/07/19 04:02:39;;;;;;;15.07;8.90;;;16.90;99.90;;;;;;4984098;28;20089;-82
2021/07/19 04:05:14;;;;;;;11.18;8.77;;;17.00;99.90;;;;;;4982824;28;20059;-82
2021/07/19 04:07:48;;;;;;;14.05;8.68;;;17.10;99.90;;;;;;4983683;28;20161;-83
2021/07/19 04:10:21;;;;;;;13.80;9.45;;;17.10;99.90;;;;;;4983843;28;20191;-81
2021/07/19 04:12:56;;;;;;;13.40;9.27;;;17.20;99.90;;;;;;4987076;28;20043;-81
2021/07/19 04:18:49;;;;;;;14.70;9.15;;;17.50;99.90;;;;;;4922417;28;20059;-80
2021/07/19 04:21:21;;;;;;;12.35;8.75;;;17.60;99.90;;;;;;4982424;28;20054;-82
2021/07/19 04:23:49;;;;;;;12.25;8.73;;;17.80;99.90;;;;;;4983718;28;20130;-82
2021/07/19 04:26:16;;;;;;;12.48;8.80;;;18.00;99.90;;;;;;4979119;28;20050;-83
2021/07/19 04:28:54;;;;;;;12.60;8.50;;;18.10;99.90;;;;;;4977402;28;20047;-82
2021/07/19 04:31:21;;;;;;;10.98;9.48;;;18.10;99.90;;;;;;4978782;28;20063;-80
2021/07/19 04:33:49;;;;;;;13.93;9.18;;;18.10;99.90;;;;;;4980861;28;20126;-82
2021/07/19 04:36:18;;;;;;;13.60;9.73;;;18.10;99.90;;;;;;4987039;28;20061;-81
2021/07/19 04:38:46;;;;;;;11.70;8.55;;;18.10;99.90;;;;;;4987171;28;20074;-81
2021/07/19 04:41:19;;;;;;;13.88;9.00;;;18.30;99.90;;;;;;4982820;28;20062;-81
2021/07/19 04:43:46;;;;;;;15.00;8.82;;;18.40;99.90;;;;;;4981224;28;20050;-80
2021/07/19 04:46:15;;;;;;;14.65;9.00;;;18.50;99.90;;;;;;4981860;28;20110;-82
2021/07/19 04:48:42;;;;;;;12.73;8.00;;;18.70;99.90;;;;;;4981515;28;20142;-78
2021/07/19 04:51:09;;;;;;;12.65;8.48;;;18.70;99.90;;;;;;4982409;28;20093;-78
2021/07/19 04:53:39;;;;;;;13.07;8.43;;;18.70;99.90;;;;;;4982398;28;20114;-80
2021/07/19 04:56:07;;;;;;;14.25;8.48;;;18.50;99.90;;;;;;4979663;28;20085;-78
2021/07/19 04:58:34;;;;;;;10.48;7.97;;;18.40;99.90;;;;;;4979340;28;20051;-78
2021/07/19 05:01:07;;;;;;;11.00;8.07;;;18.40;99.90;;;;;;4980483;28;20051;-80
2021/07/19 05:03:38;;;;;;;12.10;8.20;;;18.50;99.90;;;;;;4979563;28;20050;-78
2021/07/19 05:06:08;;;;;;;11.52;8.48;;;18.60;99.90;;;;;;4978842;28;20426;-79
2021/07/19 05:08:38;;;;;;;13.48;8.38;;;18.60;99.90;;;;;;4979952;28;20058;-79
2021/07/19 05:11:06;;;;;;;13.80;9.25;;;18.50;99.90;;;;;;4978519;28;20101;-80
2021/07/19 05:13:33;;;;;;;13.80;8.88;;;18.50;99.90;;;;;;4982558;28;20536;-81
2021/07/19 05:16:01;;;;;;;10.52;8.35;;;18.50;99.90;;;;;;4984496;28;20086;-81
2021/07/19 05:18:30;;;;;;;10.95;8.45;;;18.50;99.90;;;;;;4984504;28;20086;-80
2021/07/19 05:20:57;;;;;;;10.45;8.65;;;18.50;99.90;;;;;;4982320;28;20504;-81
2021/07/19 05:23:25;;;;;;;14.60;9.55;;;18.60;99.90;;;;;;4982578;28;20205;-79
2021/07/19 05:25:55;;;;;;;14.50;9.10;;;18.60;99.90;;;;;;4982640;28;20129;-80
2021/07/19 05:28:23;;;;;;;12.20;9.00;;;18.50;99.90;;;;;;4982306;28;20058;-83
2021/07/19 05:30:53;;;;;;;16.02;8.52;;;18.50;99.90;;;;;;4990411;28;20117;-81
2021/07/19 05:33:25;;;;;;;13.38;8.57;;;18.50;99.90;;;;;;4990280;28;20078;-81
2021/07/19 05:42:31;;;;;;;13.23;8.85;;;18.70;99.90;;;;;;4880372;29;20125;-81
2021/07/19 05:45:01;;;;;;;14.65;8.75;;;18.80;99.90;;;;;;4899827;29;20053;-81
2021/07/19 05:47:42;;;;;;;12.60;8.68;;;18.80;99.90;;;;;;4900101;29;20072;-82
2021/07/19 05:56:10;;;;;;;13.98;10.38;;;18.90;99.90;;;;;;4928689;28;20112;-85
2021/07/19 05:58:38;;;;;;;19.52;12.57;;;19.00;99.90;;;;;;4962852;28;20048;-85
2021/07/19 06:01:07;;;;;;;19.25;12.50;;;18.90;99.90;;;;;;4961327;28;20079;-84
2021/07/19 06:03:45;;;;;;;19.05;14.35;;;18.90;99.90;;;;;;4965292;29;20044;-83
2021/07/19 06:06:15;;;;;;;22.77;14.48;;;18.80;99.90;;;;;;4953981;29;20052;-83
2021/07/19 06:09:09;;;;;;;22.50;15.40;;;18.70;99.90;;;;;;4957613;29;20338;-84
2021/07/19 06:15:17;;;;;;;23.08;14.23;;;18.60;99.90;;;;;;4941511;28;20097;-85
2021/07/19 06:17:44;;;;;;;16.67;12.20;;;18.70;99.90;;;;;;4968819;28;20085;-80
2021/07/19 06:20:38;;;;;;;21.92;12.45;;;18.90;99.90;;;;;;4955410;28;20047;-83
2021/07/19 06:23:06;;;;;;;14.75;11.48;;;19.00;99.90;;;;;;4944469;29;20079;-85
2021/07/19 06:25:36;;;;;;;16.13;11.20;;;19.20;99.90;;;;;;4941870;29;20063;-85
2021/07/19 06:28:04;;;;;;;20.25;11.32;;;19.30;99.90;;;;;;4945104;29;20448;-82
2021/07/19 06:30:33;;;;;;;14.30;11.05;;;19.40;99.90;;;;;;4955841;29;20087;-82
2021/07/19 06:33:00;;;;;;;12.45;10.90;;;19.50;99.90;;;;;;4956090;28;20051;-83
2021/07/19 06:35:28;;;;;;;16.23;10.45;;;19.50;99.90;;;;;;4960273;28;20059;-83
2021/07/19 06:37:55;;;;;;;15.68;10.57;;;19.70;99.90;;;;;;4964422;29;20102;-82
2021/07/19 06:40:22;;;;;;;13.73;10.25;;;19.80;99.90;;;;;;4960439;28;20134;-82
2021/07/19 06:42:49;;;;;;;16.10;10.25;;;19.90;99.90;;;;;;4969965;29;20051;-83
2021/07/19 06:45:16;;;;;;;14.23;10.07;;;20.00;99.90;;;;;;4973149;29;20086;-81
2021/07/19 06:47:46;;;;;;;14.00;10.70;;;20.20;99.90;;;;;;4972455;28;20075;-81
2021/07/19 06:50:13;;;;;;;13.52;10.73;;;20.30;99.90;;;;;;4971941;29;20083;-82
2021/07/19 06:52:42;;;;;;;15.57;10.70;;;20.10;99.90;;;;;;4967932;29;20082;-84
2021/07/19 06:55:10;;;;;;;15.43;11.07;;;19.80;99.90;;;;;;4964428;29;20082;-83
2021/07/19 06:57:37;;;;;;;13.30;10.18;;;19.90;99.90;;;;;;4962541;28;20090;-84
2021/07/19 07:00:07;;;;;;;14.85;10.90;;;19.80;99.90;;;;;;4961615;28;20094;-83
2021/07/19 07:02:34;;;;;;;16.73;10.60;;;19.70;99.90;;;;;;4961340;29;20595;-83
2021/07/19 07:05:03;;;;;;;15.15;10.57;;;19.70;99.90;;;;;;4961780;29;20248;-82
2021/07/19 07:07:29;;;;;;;14.73;9.95;;;19.60;99.90;;;;;;4960862;29;20563;-83
2021/07/19 07:09:56;;;;;;;16.80;11.05;;;19.70;99.90;;;;;;4961105;29;20093;-82
2021/07/19 07:12:23;;;;;;;19.83;10.68;;;19.80;99.90;;;;;;4960794;28;20142;-83
2021/07/19 07:14:50;;;;;;;12.90;10.70;;;19.90;99.90;;;;;;4959955;28;20500;-84
2021/07/19 07:17:17;;;;;;;14.48;10.07;;;19.80;99.90;;;;;;4961415;28;20087;-83
2021/07/19 07:19:44;;;;;;;12.27;9.90;;;19.90;99.90;;;;;;4961951;28;20110;-83
2021/07/19 07:22:13;;;;;;;13.95;10.27;;;20.00;99.90;;;;;;4961650;29;20051;-82
2021/07/19 07:24:40;;;;;;;11.65;9.85;;;20.00;99.90;;;;;;4962637;29;20110;-84
2021/07/19 07:27:08;;;;;;;12.35;10.15;;;20.00;99.90;;;;;;4962128;29;20051;-82
2021/07/19 07:29:35;;;;;;;15.93;10.50;;;20.00;99.90;;;;;;4961113;28;20394;-84
2021/07/19 07:32:02;;;;;;;14.55;10.07;;;20.00;99.90;;;;;;4961096;28;20051;-83
2021/07/19 07:34:29;;;;;;;14.13;10.23;;;19.90;99.90;;;;;;4988906;23;20150;-80
2021/07/19 07:36:56;;;;;;;15.07;11.05;;;20.00;99.90;;;;;;4977427;28;20051;-77
2021/07/19 07:39:24;;;;;;;14.52;10.70;;;20.10;99.90;;;;;;4974191;28;20049;-77
2021/07/19 07:41:51;;;;;;;19.40;11.75;;;19.90;99.90;;;;;;4975084;28;20090;-77
2021/07/19 07:44:18;;;;;;;16.27;10.90;;;19.80;99.90;;;;;;4975606;28;20133;-78
2021/07/19 07:46:45;;;;;;;14.85;10.77;;;20.00;99.90;;;;;;4975499;28;20130;-80
2021/07/19 07:49:12;;;;;;;15.27;10.70;;;20.10;99.90;;;;;;4974720;28;20138;-79
2021/07/19 07:51:39;;;;;;;13.65;10.90;;;20.00;99.90;;;;;;4974624;28;20050;-78
2021/07/19 07:54:06;;;;;;;15.38;10.70;;;20.00;99.90;;;;;;4974095;28;20500;-79
2021/07/19 07:56:34;;;;;;;15.85;10.68;;;20.00;99.90;;;;;;4975894;28;20133;-79
2021/07/19 07:59:01;;;;;;;12.10;10.40;;;20.10;99.90;;;;;;4975960;28;20108;-80
2021/07/19 08:01:28;;;;;;;13.23;10.25;;;20.20;99.90;;;;;;4974286;28;20162;-79
2021/07/19 08:03:55;;;;;;;16.00;11.70;;;20.20;99.90;;;;;;4973816;28;20093;-79
2021/07/19 08:06:22;;;;;;;15.50;11.18;;;20.10;99.90;;;;;;4976306;28;20138;-79
2021/07/19 08:08:49;;;;;;;12.85;10.27;;;20.10;99.90;;;;;;4974027;28;20137;-78
2021/07/19 08:11:16;;;;;;;15.80;11.18;;;19.90;99.90;;;;;;4977299;28;20129;-79
2021/07/19 08:13:44;;;;;;;14.45;10.73;;;19.90;99.90;;;;;;4976783;28;20133;-79
2021/07/19 08:16:11;;;;;;;18.40;11.05;;;20.00;99.90;;;;;;4977083;28;20145;-79
2021/07/19 08:18:38;;;;;;;15.02;11.07;;;20.00;99.90;;;;;;4979428;28;20516;-79
2021/07/19 08:21:05;;;;;;;15.68;11.40;;;20.00;99.90;;;;;;4979327;28;20574;-79
2021/07/19 08:23:32;;;;;;;15.85;10.55;;;20.10;99.90;;;;;;4978689;28;20051;-78
2021/07/19 08:25:59;;;;;;;14.00;10.70;;;20.20;99.90;;;;;;4977706;28;20475;-77
2021/07/19 08:28:26;;;;;;;12.43;10.25;;;20.20;99.90;;;;;;4976284;28;20567;-77
2021/07/19 08:30:54;;;;;;;18.38;10.60;;;20.30;99.90;;;;;;4977295;28;20110;-79
2021/07/19 08:33:21;;;;;;;14.15;10.88;;;20.30;99.90;;;;;;4976639;28;20047;-78
2021/07/19 08:35:49;;;;;;;14.25;10.88;;;20.20;99.90;;;;;;4977726;28;20139;-79
2021/07/19 08:38:16;;;;;;;15.80;11.25;;;20.30;99.90;;;;;;4978657;28;20061;-79
2021/07/19 08:40:46;;;;;;;15.30;10.95;;;20.50;99.90;;;;;;4980908;28;20142;-81
2021/07/19 08:43:13;;;;;;;14.43;11.50;;;20.60;99.90;;;;;;4979499;28;20055;-80
2021/07/19 08:45:40;;;;;;;19.30;11.40;;;20.70;99.90;;;;;;4978984;28;20070;-79
2021/07/19 08:48:09;;;;;;;15.73;12.07;;;20.60;99.90;;;;;;4976575;28;20582;-78
2021/07/19 08:50:36;;;;;;;16.13;11.48;;;20.30;99.90;;;;;;4978837;28;20065;-77
2021/07/19 08:53:03;;;;;;;24.38;13.00;;;20.20;99.90;;;;;;4990979;28;20066;-79
2021/07/19 08:55:31;;;;;;;14.25;11.57;;;20.30;99.90;;;;;;4994881;28;20050;-78
2021/07/19 08:58:01;;;;;;;17.13;12.43;;;20.30;99.90;;;;;;4995466;28;20093;-80
2021/07/19 09:00:29;;;;;;;17.05;12.57;;;20.20;99.90;;;;;;4982171;28;20086;-78
2021/07/19 09:02:56;;;;;;;15.90;12.93;;;20.20;99.90;;;;;;4978160;28;20057;-77
2021/07/19 09:05:26;;;;;;;15.10;12.85;;;20.30;99.90;;;;;;4977278;28;20050;-81
2021/07/19 09:07:53;;;;;;;20.38;14.30;;;20.30;99.90;;;;;;4979085;28;20141;-80
2021/07/19 09:10:26;;;;;;;18.77;14.27;;;20.40;99.90;;;;;;4979533;28;20137;-82
2021/07/19 09:12:54;;;;;;;17.40;14.15;;;20.50;99.90;;;;;;4979333;28;20078;-79
2021/07/19 09:15:33;;;;;;;18.85;15.45;;;20.60;99.90;;;;;;4977372;28;20364;-81
2021/07/19 09:18:01;;;;;;;18.95;15.68;;;20.60;99.90;;;;;;4977893;28;20528;-79
2021/07/19 09:20:31;;;;;;;18.90;16.13;;;20.50;99.90;;;;;;4976975;28;20109;-79
2021/07/19 09:22:59;;;;;;;20.20;15.88;;;20.40;99.90;;;;;;4979323;28;20141;-81
2021/07/19 09:25:26;;;;;;;18.48;14.65;;;20.40;99.90;;;;;;4982094;28;20114;-80
2021/07/19 09:27:56;;;;;;;18.55;15.00;;;20.60;99.90;;;;;;4982235;28;20055;-81
2021/07/19 09:30:26;;;;;;;20.05;15.07;;;20.50;99.90;;;;;;4979760;28;20129;-80
2021/07/19 09:32:59;;;;;;;20.17;15.10;;;20.50;99.90;;;;;;4977309;28;20062;-82
2021/07/19 09:35:27;;;;;;;18.38;14.55;;;20.40;99.90;;;;;;4978848;28;20058;-78
2021/07/19 09:37:56;;;;;;;20.02;14.32;;;20.40;99.90;;;;;;4976856;28;20051;-79
2021/07/19 09:40:28;;;;;;;20.77;13.45;;;20.40;99.90;;;;;;4976371;28;20134;-78
2021/07/19 09:42:56;;;;;;;18.50;14.90;;;20.40;99.90;;;;;;4978468;28;20090;-83
2021/07/19 09:45:25;;;;;;;16.90;14.00;;;20.60;99.90;;;;;;4979778;28;20051;-79
2021/07/19 09:48:00;;;;;;;18.95;15.00;;;20.70;99.90;;;;;;4979351;28;20130;-79
2021/07/19 09:50:43;;;;;;;20.20;15.85;;;20.70;99.90;;;;;;4981553;28;20053;-78
2021/07/19 09:53:12;;;;;;;20.58;16.15;;;20.70;99.90;;;;;;4976790;28;20459;-80
2021/07/19 09:55:39;;;;;;;19.23;15.88;;;20.70;99.90;;;;;;4976489;28;20137;-79
2021/07/19 09:58:06;;;;;;;21.30;16.60;;;20.70;99.90;;;;;;4978370;28;20686;-78
2021/07/19 10:00:34;;;;;;;22.08;16.45;;;20.80;99.90;;;;;;4978129;28;20105;-79
2021/07/19 10:03:13;;;;;;;20.05;17.25;;;20.80;99.90;;;;;;4979126;28;20083;-80
2021/07/19 10:05:40;;;;;;;21.10;16.35;;;21.00;99.90;;;;;;4977860;28;20057;-79
2021/07/19 10:08:08;;;;;;;19.48;16.02;;;21.00;99.90;;;;;;4977545;28;20119;-77
2021/07/19 10:10:39;;;;;;;20.85;16.27;;;20.90;99.90;;;;;;4977973;28;20050;-80
2021/07/19 10:13:07;;;;;;;21.80;17.63;;;20.90;99.90;;;;;;4976895;28;20113;-78
2021/07/19 10:15:36;;;;;;;19.65;16.35;;;20.70;99.90;;;;;;4976511;28;20138;-79
2021/07/19 10:18:08;;;;;;;21.05;17.98;;;20.50;99.90;;;;;;4979747;28;20086;-80
2021/07/19 10:20:35;;;;;;;26.67;18.23;;;20.50;99.90;;;;;;4986205;28;20086;-79
2021/07/19 10:23:03;;;;;;;22.30;17.58;;;20.60;99.90;;;;;;4986870;28;20085;-80
2021/07/19 10:25:30;;;;;;;25.70;17.08;;;20.60;99.90;;;;;;4988323;28;20122;-80
2021/07/19 10:27:59;;;;;;;26.38;17.70;;;20.70;99.90;;;;;;4986408;28;20055;-81
2021/07/19 10:30:26;;;;;;;25.08;16.58;;;20.70;99.90;;;;;;4983915;28;20051;-79
2021/07/19 10:32:52;;;;;;;23.23;16.42;;;20.70;99.90;;;;;;4979609;28;20486;-80
2021/07/19 10:35:21;;;;;;;21.92;17.20;;;20.90;99.90;;;;;;4978645;28;20113;-79
2021/07/19 10:37:55;;;;;;;20.20;16.65;;;21.00;99.90;;;;;;4979332;28;20083;-78
2021/07/19 10:40:27;;;;;;;24.17;17.88;;;21.00;99.90;;;;;;4980070;28;20082;-78
2021/07/19 10:43:06;;;;;;;21.83;18.20;;;21.10;99.90;;;;;;4979713;28;20110;-79
2021/07/19 10:45:42;;;;;;;23.60;17.20;;;21.30;99.90;;;;;;4978642;28;20062;-78
2021/07/19 10:48:09;;;;;;;23.33;17.25;;;21.40;99.90;;;;;;4979711;28;20061;-78
2021/07/19 10:50:42;;;;;;;22.15;16.60;;;21.40;99.90;;;;;;4979164;28;20054;-80
2021/07/19 10:53:22;;;;;;;21.17;17.65;;;21.10;99.90;;;;;;4977867;28;20259;-79
2021/07/19 10:56:06;;;;;;;21.17;15.98;;;21.00;99.90;;;;;;4978121;28;20062;-78
2021/07/19 10:59:11;;;;;;;;;;;;;;;;;;;;;
2021/07/19 11:01:58;;;;;;;21.85;16.33;;;21.20;99.90;;;;;;4923138;28;20063;-79
2021/07/19 11:04:45;;;;;;;21.75;16.38;;;21.20;99.90;;;;;;4980098;28;20062;-79
2021/07/19 11:07:59;;;;;;;21.65;16.90;;;21.40;99.90;;;;;;4978194;28;20423;-82
2021/07/19 11:10:29;;;;;;;24.20;18.08;;;21.50;99.90;;;;;;4963370;28;20059;-80
2021/07/19 11:13:01;;;;;;;24.92;16.17;;;21.30;99.90;;;;;;4975521;28;20063;-79
2021/07/19 11:15:48;;;;;;;21.70;17.00;;;21.30;99.90;;;;;;4976181;28;20050;-78
2021/07/19 11:18:19;;;;;;;21.63;16.85;;;21.50;99.90;;;;;;4978323;28;20333;-78
2021/07/19 11:20:50;;;;;;;20.40;16.95;;;21.30;99.90;;;;;;4977515;28;20055;-78
2021/07/19 11:23:27;;;;;;;23.15;17.48;;;21.30;99.90;;;;;;4976524;28;20066;-78
2021/07/19 11:25:57;;;;;;;24.02;16.40;;;21.50;99.90;;;;;;4974187;28;20491;-79
2021/07/19 11:28:43;;;;;;;20.48;16.52;;;21.70;99.90;;;;;;4978131;28;20086;-78
2021/07/19 11:31:19;;;;;;;23.92;17.70;;;21.90;99.90;;;;;;4976811;28;20094;-80
2021/07/19 11:34:22;;;;;;;;;;;;;;;;;;;;;
2021/07/19 11:36:52;;;;;;;21.65;16.88;;;21.80;99.90;;;;;;4915965;28;20052;-79
2021/07/19 11:39:21;;;;;;;21.50;16.48;;;21.60;99.90;;;;;;4975610;28;20091;-77
2021/07/19 11:41:59;;;;;;;22.10;17.48;;;21.60;99.90;;;;;;4973742;28;20207;-76
2021/07/19 11:44:27;;;;;;;20.25;15.75;;;21.70;99.90;;;;;;4973905;28;20137;-78
2021/07/19 11:46:58;;;;;;;23.00;16.17;;;21.80;99.90;;;;;;4976598;28;20423;-79
2021/07/19 11:49:25;;;;;;;19.70;15.45;;;22.00;99.90;;;;;;4974209;28;20042;-78
2021/07/19 11:51:53;;;;;;;21.42;15.77;;;22.00;99.90;;;;;;4974823;28;20084;-79
2021/07/19 11:54:20;;;;;;;21.92;16.73;;;22.10;99.90;;;;;;4975139;28;20134;-78
2021/07/19 11:56:48;;;;;;;19.90;17.02;;;21.90;99.90;;;;;;4973933;28;20133;-78
2021/07/19 11:59:20;;;;;;;20.70;16.95;;;22.00;99.90;;;;;;4976106;28;20057;-78
2021/07/19 12:01:57;;;;;;;24.45;17.85;;;21.90;99.90;;;;;;4974360;28;20054;-79
2021/07/19 12:04:24;;;;;;;20.33;17.15;;;21.50;99.90;;;;;;4975728;28;20051;-79
2021/07/19 12:06:56;;;;;;;23.27;16.48;;;21.40;99.90;;;;;;4976581;28;20089;-80
2021/07/19 12:09:23;;;;;;;22.55;18.23;;;21.80;99.90;;;;;;4979697;28;20098;-79
2021/07/19 12:11:54;;;;;;;22.13;18.15;;;22.00;99.90;;;;;;4980076;28;20078;-79
2021/07/19 12:14:21;;;;;;;25.38;19.77;;;22.40;99.90;;;;;;4977441;28;20565;-79
2021/07/19 12:16:48;;;;;;;22.33;19.20;;;22.40;99.90;;;;;;4970237;28;20057;-79
2021/07/19 12:19:19;;;;;;;22.80;18.60;;;22.40;99.90;;;;;;4976694;28;20151;-82
2021/07/19 12:21:48;;;;;;;23.52;18.58;;;22.60;99.90;;;;;;4972514;28;20477;-79
2021/07/19 12:24:16;;;;;;;22.98;18.70;;;22.90;99.90;;;;;;4961891;28;20047;-80
2021/07/19 12:26:45;;;;;;;21.48;18.65;;;23.00;99.90;;;;;;4962720;28;20138;-80
2021/07/19 12:29:14;;;;;;;23.40;17.85;;;23.20;99.90;;;;;;4972383;28;20484;-79
2021/07/19 12:31:49;;;;;;;25.20;21.23;;;23.40;99.90;;;;;;4974822;28;20051;-80
2021/07/19 12:34:19;;;;;;;22.95;20.42;;;23.60;99.90;;;;;;4952376;28;20559;-79
2021/07/19 12:36:51;;;;;;;25.70;20.75;;;23.60;99.90;;;;;;4969409;28;20076;-78
2021/07/19 12:39:22;;;;;;;27.25;21.50;;;23.50;99.90;;;;;;4954987;28;20044;-79
2021/07/19 12:41:51;;;;;;;27.77;22.17;;;23.60;99.90;;;;;;4971515;28;20097;-77
2021/07/19 12:44:22;;;;;;;26.50;22.65;;;23.60;99.90;;;;;;4970966;28;20097;-80
2021/07/19 12:46:51;;;;;;;28.48;22.48;;;23.80;99.90;;;;;;4957850;28;20055;-78
2021/07/19 12:49:29;;;;;;;26.63;22.30;;;23.80;99.90;;;;;;4952546;29;20063;-77
2021/07/19 12:52:05;;;;;;;25.92;21.95;;;24.00;99.90;;;;;;4956059;29;20110;-78
2021/07/19 12:54:32;;;;;;;28.60;22.88;;;23.90;99.90;;;;;;4953933;28;20093;-79
2021/07/19 12:56:59;;;;;;;25.27;21.10;;;23.60;99.90;;;;;;4958840;29;20504;-78
2021/07/19 12:59:26;;;;;;;26.52;21.65;;;23.60;99.90;;;;;;4957767;29;20054;-78
2021/07/19 13:01:57;;;;;;;25.35;21.52;;;23.40;99.90;;;;;;4957011;29;20560;-77
2021/07/19 13:04:25;;;;;;;24.52;20.25;;;23.50;99.90;;;;;;4957888;29;20090;-80
2021/07/19 13:06:55;;;;;;;25.67;20.35;;;23.70;99.90;;;;;;4958248;29;20536;-78
2021/07/19 13:09:23;;;;;;;23.88;19.17;;;23.80;99.90;;;;;;4957456;28;20114;-79
2021/07/19 13:12:02;;;;;;;23.60;20.17;;;23.70;99.90;;;;;;4956834;28;20134;-79
2021/07/19 13:14:40;;;;;;;25.23;20.20;;;23.40;99.90;;;;;;4956383;29;20134;-78
2021/07/19 13:17:08;;;;;;;23.63;19.70;;;23.50;99.90;;;;;;4957331;29;20115;-79
2021/07/19 13:19:36;;;;;;;22.77;19.15;;;23.60;99.90;;;;;;4956861;29;20051;-79
2021/07/19 13:22:09;;;;;;;24.95;20.20;;;23.70;99.90;;;;;;4956300;28;20130;-77
2021/07/19 13:24:38;;;;;;;22.08;18.75;;;23.80;99.90;;;;;;4956840;29;20057;-78
2021/07/19 13:27:05;;;;;;;24.05;19.15;;;23.60;99.90;;;;;;4957309;28;20138;-78
2021/07/19 13:29:32;;;;;;;22.38;19.63;;;23.40;99.90;;;;;;4956626;28;20515;-78
2021/07/19 13:32:11;;;;;;;26.52;22.15;;;23.40;99.90;;;;;;4955914;28;20401;-77
2021/07/19 13:34:38;;;;;;;22.35;19.88;;;23.30;99.90;;;;;;4957119;29;20087;-79
2021/07/19 13:37:07;;;;;;;25.33;19.33;;;23.50;99.90;;;;;;4956529;28;20082;-78
2021/07/19 13:39:38;;;;;;;24.95;19.55;;;23.70;99.90;;;;;;4959725;28;20130;-78
2021/07/19 13:42:07;;;;;;;28.10;18.60;;;24.00;99.90;;;;;;4957325;29;20141;-79